16:15
Airports
Links
Donate
Help keep this website running!
PayPal
Bitcoin
METAR
CYYR 241600Z 33015KT 15SM FEW042 FEW230 M11/M23 A2968 RMK SC1CI1 SLP056
Current Weather Conditions at CYYR
VFR 16:00:00 24-02-18
Altimeter:29.68 hg
Temp:-11.0°c 12°f
Dew point:-23.0°c -9°f
Wind:15 knots, 17.3 mph, 8 m/s, from 330°
Visibility:15.0 statute miles
23000(FEW) A few
4200(FEW) A few
Past METAR reports
VFR 15:00:00 24-02-18
Altimeter:29.66 hg
Temp:-11.0°c 12°f
Dew point:-19.0°c -2°f
Wind:14 knots, 16.1 mph, 7 m/s, from 290°
Visibility:15.0 statute miles
23000(SCT) Scattered
4100(SCT) Scattered
CYYR 241500Z 29014G19KT 15SM SCT041 SCT230 M11/M19 A2966 RMK SC3CI1 SLP050
VFR 14:00:00 24-02-18
Altimeter:29.64 hg
Temp:-11.0°c 12°f
Dew point:-20.0°c -4°f
Wind:16 knots, 18.4 mph, 8 m/s, from 330°
Visibility:15.0 statute miles
23000(BKN) Broken
16000(FEW) A few
7400(FEW) A few
4100(FEW) A few
CYYR 241400Z 33016G21KT 15SM FEW041 FEW074 FEW160 BKN230 M11/M20 A2964 RMK SC2AC1AC1CI3 SH DIST E SLP041
VFR 13:00:00 24-02-18
Altimeter:29.62 hg
Temp:-12.0°c 10°f
Dew point:-19.0°c -2°f
Wind:10 knots, 11.5 mph, 5 m/s, from 320°
Visibility:15.0 statute miles
16000(BKN) Broken
7400(FEW) A few
4000(FEW) A few
CYYR 241300Z 32010G16KT 15SM FEW040 FEW074 BKN160 M12/M19 A2962 RMK SC1AC2AC3 SLP037
VFR 12:00:00 24-02-18
Altimeter:29.59 hg
Temp:-10.0°c 14°f
Dew point:-16.0°cf
Wind:9 knots, 10.4 mph, 5 m/s, from 280°
Visibility:15.0 statute miles
7300(BKN) Broken
5000(FEW) A few
CYYR 241200Z 28009KT 15SM FEW050 BKN073 M10/M16 A2959 RMK SC2AC4 SLP025
VFR 11:00:00 24-02-18
Altimeter:29.57 hg
Temp:-10.0°c 14°f
Dew point:-15.0°cf
Wind:3 knots, 3.5 mph, 2 m/s, from 260°
Visibility:15.0 statute miles
4700(OVC) Overcast
CYYR 241100Z 26003KT 15SM OVC047 M10/M15 A2957 RMK SC8 SLP018
VFR 10:31:00 24-02-18
Altimeter:29.56 hg
Temp:-9.0°c 16°f
Dew point:-15.0°cf
Wind:7 knots, 8.1 mph, 4 m/s, from 310°
Visibility:15.0 statute miles
4400(OVC) Overcast
CYYR 241031Z 31007KT 15SM OVC044 M09/M15 A2956 RMK SC8 SLP016
TAF
TAF AMD CYYR 241408Z 2414/2512 32012G22KT P6SM FEW030 SCT180 FM250200 28008KT P6SM SKC RMK NXT FCST BY 241800Z
Forecast at CYYR
14:00 24-02-18 to 02:00 25-02-18
Wind:12 Knots from 320°
Visibility:6.21 statute miles
3000FEW A few
18000SCT Scattered
FM 02:00 25-02-18 to 12:00 25-02-18
Wind:8 Knots from 280°
Visibility:6.21 statute miles
SKC Clear